Independent — WDJ441 — position and weather

sailwx.info

Track history (hours):
 
Tides and Currents Weather Stations Pressure Air Temp Water Temp Dewpoint Dewpoint Depression Visibility Wind Speed Wind Dir Waves Ship Positions

Independent

Last reported at 2017-Dec-08 14:16 UTC. Time now 2017-Dec-13 22:44 UTC.
Position N 27°42' W 082°33'.

Length 28 m; draft 5 m.

Type: Tug. MMSI: 367777460.

Date/timePositionNaut miles runAvg speedWind from/ knotsBaromVisibWave heightAir tempDewpointWater temp
2017-Dec-08 14:16N 27°42' W 082°33'414.2
2017-Dec-08 14:01N 27°45' W 082°32'611.7
2017-Dec-08 13:30N 27°49' W 082°26'2 3.3
2017-Dec-08 13:01N 27°48' W 082°25'0 0.4
2017-Dec-08 12:30N 27°48' W 082°25'2 4.0
2017-Dec-08 12:00N 27°49' W 082°27'2 3.2
2017-Dec-08 11:30N 27°48' W 082°29'5 9.8
2017-Dec-08 11:00N 27°53' W 082°26'3 6.9
2017-Dec-08 10:30N 27°56' W 082°26'0 0.0
2017-Dec-08 10:01N 27°56' W 082°26'0 0.0
2017-Dec-08 09:31N 27°56' W 082°26'0 0.0
2017-Dec-08 09:01N 27°56' W 082°26'0 0.0
2017-Dec-08 08:30N 27°56' W 082°26'0 0.0
2017-Dec-08 08:00N 27°56' W 082°26'0 0.0
2017-Dec-08 07:31N 27°56' W 082°26'2 4.2
2017-Dec-08 07:01N 27°54' W 082°25'0 0.0
2017-Dec-08 06:30N 27°54' W 082°25'0 0.3
2017-Dec-08 06:01N 27°54' W 082°25'1 2.9
2017-Dec-08 05:30N 27°53' W 082°26'611.1
2017-Dec-08 05:00N 27°48' W 082°28'510.4
2017-Dec-08 04:30N 27°44' W 082°32'4 1.5
2017-Dec-08 02:04N 27°41' W 082°34'112.2
2017-Dec-08 01:58N 27°42' W 082°33'612.0
2017-Dec-08 01:30N 27°47' W 082°31'510.9
2017-Dec-08 01:01N 27°51' W 082°27'5 9.0
2017-Dec-08 00:30N 27°55' W 082°26'0 0.0
2017-Dec-08 00:00N 27°55' W 082°26'1 2.9
2017-Dec-07 23:30N 27°54' W 082°26'5 9.9
2017-Dec-07 23:01N 27°49' W 082°27'2 4.4
2017-Dec-07 22:30N 27°48' W 082°24'1 1.9
2017-Dec-07 22:00N 27°49' W 082°26'611.3
2017-Dec-07 21:30N 27°46' W 082°31'6 1.2
2017-Dec-07 16:51N 27°41' W 082°34'412.3
2017-Dec-07 16:31N 27°45' W 082°32'510.9
2017-Dec-07 16:01N 27°48' W 082°27'3 5.2
2017-Dec-07 15:30N 27°48' W 082°25'0 0.0
2017-Dec-07 14:58N 27°48' W 082°24'0 0.0
2017-Dec-07 13:49N 27°48' W 082°24'0 0.0
2017-Dec-07 13:03N 27°48' W 082°24'0 0.0
2017-Dec-07 12:50N 27°48' W 082°24'0 0.0
2017-Dec-07 12:28N 27°48' W 082°24'0 0.0
2017-Dec-07 11:58N 27°48' W 082°24'0 0.0
2017-Dec-07 07:29N 27°48' W 082°24'0 0.5
2017-Dec-07 07:00N 27°48' W 082°25'2 5.0
2017-Dec-07 06:31N 27°48' W 082°28'2 4.4
2017-Dec-07 06:00N 27°48' W 082°30'4 7.5
2017-Dec-07 05:30N 27°44' W 082°32'7 1.5
2017-Dec-07 01:06N 27°38' W 082°34'0 2.4
2017-Dec-07 01:00N 27°38' W 082°34'  
2017-Dec-04 10:30N 27°56' W 082°26'0 0.0
2017-Dec-04 10:00N 27°56' W 082°26'0 0.0
2017-Dec-04 09:30N 27°56' W 082°26'0 0.0
2017-Dec-04 09:01N 27°56' W 082°26'0 0.0
2017-Dec-04 08:30N 27°56' W 082°26'0 0.0
2017-Dec-04 08:00N 27°56' W 082°26'0 0.0
2017-Dec-04 07:30N 27°56' W 082°26'0 0.0
2017-Dec-04 07:00N 27°56' W 082°26'0 0.0
2017-Dec-04 06:31N 27°56' W 082°26'0 0.0
2017-Dec-04 06:00N 27°56' W 082°26'0 0.0
2017-Dec-04 05:30N 27°56' W 082°26'0 0.0
2017-Dec-04 05:00N 27°56' W 082°26'0 0.0
2017-Dec-04 04:30N 27°56' W 082°26'0 0.0
2017-Dec-04 04:01N 27°56' W 082°26'0 0.0
2017-Dec-04 03:30N 27°56' W 082°26'0 0.0
2017-Dec-04 03:00N 27°56' W 082°26'0 0.0
2017-Dec-04 02:31N 27°56' W 082°26'0 0.0
2017-Dec-04 02:00N 27°56' W 082°26'0 0.0
2017-Dec-04 01:30N 27°56' W 082°26'0 0.0
2017-Dec-04 01:00N 27°56' W 082°26'0 0.0
2017-Dec-04 00:30N 27°56' W 082°26'0 0.2
2017-Dec-04 00:00N 27°56' W 082°26'1 2.0
2017-Dec-03 23:30N 27°55' W 082°27'0 0.3
2017-Dec-03 23:00N 27°55' W 082°27'0 0.6
2017-Dec-03 22:31N 27°55' W 082°27'1 2.8
2017-Dec-03 22:00N 27°56' W 082°26'0 0.0
2017-Dec-03 21:30N 27°56' W 082°26'0 0.0
2017-Dec-03 21:01N 27°56' W 082°26'0 0.0
2017-Dec-03 20:30N 27°56' W 082°26'0 0.0
2017-Dec-03 20:00N 27°56' W 082°26'0 0.0
2017-Dec-03 19:30N 27°56' W 082°26'0 0.0
2017-Dec-03 19:00N 27°56' W 082°26'1 2.4
2017-Dec-03 18:31N 27°55' W 082°25'0 0.1
2017-Dec-03 18:01N 27°55' W 082°25'0 0.0
2017-Dec-03 17:30N 27°55' W 082°25'1 2.4
2017-Dec-03 17:00N 27°56' W 082°26'0 0.0
2017-Dec-03 16:30N 27°56' W 082°26'0 0.0
2017-Dec-03 16:00N 27°56' W 082°26'0 0.0
2017-Dec-03 15:30N 27°56' W 082°26'0 0.0
2017-Dec-03 15:00N 27°56' W 082°26'0 0.0
2017-Dec-03 14:30N 27°56' W 082°26'0 0.0
2017-Dec-03 14:00N 27°56' W 082°26'0 0.0
2017-Dec-03 13:30N 27°56' W 082°26'0 0.0
2017-Dec-03 13:00N 27°56' W 082°26'0 0.0
2017-Dec-03 12:30N 27°56' W 082°26'0 0.0
2017-Dec-03 12:00N 27°56' W 082°26'0 0.0
2017-Dec-03 11:30N 27°56' W 082°26'0 0.0
2017-Dec-03 11:00N 27°56' W 082°26'0 0.0
2017-Dec-03 10:31N 27°56' W 082°26'0 0.0
2017-Dec-03 10:00N 27°56' W 082°26'0 0.0
2017-Dec-03 09:31N 27°56' W 082°26'0 0.0
2017-Dec-03 09:00N 27°56' W 082°26'2 3.7
2017-Dec-03 08:31N 27°54' W 082°26'1 2.1
2017-Dec-03 08:01N 27°55' W 082°27'0 0.9
2017-Dec-03 07:30N 27°55' W 082°27'2 3.9
2017-Dec-03 07:00N 27°53' W 082°26'2 3.8
2017-Dec-03 06:31N 27°55' W 082°26'1 3.0
2017-Dec-03 06:00N 27°56' W 082°26'0 0.0
2017-Dec-03 05:30N 27°56' W 082°26'0 0.0
2017-Dec-03 05:00N 27°56' W 082°26'0 0.0
2017-Dec-03 04:30N 27°56' W 082°26'0 0.0
2017-Dec-03 04:00N 27°56' W 082°26'0 0.0
2017-Dec-03 03:31N 27°56' W 082°26'0 0.0
2017-Dec-03 03:00N 27°56' W 082°26'0 0.0
2017-Dec-03 02:30N 27°56' W 082°26'0 0.0
2017-Dec-03 02:01N 27°56' W 082°26'0 0.0
2017-Dec-03 01:30N 27°56' W 082°26'0 0.0
2017-Dec-03 01:00N 27°56' W 082°26'0 0.0
2017-Dec-03 00:31N 27°56' W 082°26'0 0.0
2017-Dec-03 00:01N 27°56' W 082°26'0 0.0
2017-Dec-02 23:31N 27°56' W 082°26'0 0.0
2017-Dec-02 23:00N 27°56' W 082°26'0 0.0
2017-Dec-02 22:31N 27°56' W 082°26'0 0.0
2017-Dec-02 22:01N 27°56' W 082°26'0 0.0
2017-Dec-02 21:30N 27°56' W 082°26'2 4.9
2017-Dec-02 21:01N 27°54' W 082°26'3 6.7
2017-Dec-02 20:31N 27°51' W 082°24'0 0.0
2017-Dec-02 19:59N 27°51' W 082°24'0 0.7
2017-Dec-02 19:30N 27°51' W 082°24'2 5.0
2017-Dec-02 19:00N 27°51' W 082°27'1 1.6
2017-Dec-02 18:31N 27°50' W 082°27'3 6.8
2017-Dec-02 18:01N 27°53' W 082°26'3 5.6
2017-Dec-02 17:30N 27°56' W 082°26'0 0.0
2017-Dec-02 17:00N 27°56' W 082°26'0 0.0
2017-Dec-02 16:30N 27°56' W 082°26'0 0.0
2017-Dec-02 16:00N 27°56' W 082°26'0 0.0
2017-Dec-02 15:31N 27°56' W 082°26'0 0.0
2017-Dec-02 15:01N 27°56' W 082°26'0 0.0
2017-Dec-02 14:30N 27°56' W 082°26'0 0.0
2017-Dec-02 14:00N 27°56' W 082°26'0 0.0
2017-Dec-02 13:30N 27°56' W 082°26'0 0.0
2017-Dec-02 13:00N 27°56' W 082°26'0 0.0
2017-Dec-02 12:31N 27°56' W 082°26'0 0.0
2017-Dec-02 12:01N 27°56' W 082°26'0 0.0
2017-Dec-02 11:30N 27°56' W 082°26'0 0.0
2017-Dec-02 11:00N 27°56' W 082°26'0 0.0
2017-Dec-02 10:30N 27°56' W 082°26'0 0.0
2017-Dec-02 10:00N 27°56' W 082°26'0 0.0
2017-Dec-02 09:30N 27°56' W 082°26'0 0.0
2017-Dec-02 09:00N 27°56' W 082°26'0 0.0
2017-Dec-02 08:30N 27°56' W 082°26'2 4.0
2017-Dec-02 08:01N 27°54' W 082°25'0 0.5
2017-Dec-02 07:30N 27°54' W 082°25'1 1.1
2017-Dec-02 07:01N 27°54' W 082°26'1 2.1
2017-Dec-02 06:30N 27°55' W 082°27'0 0.3
2017-Dec-02 06:00N 27°55' W 082°27'1 1.8
2017-Dec-02 05:30N 27°56' W 082°26'1 1.1
2017-Dec-02 05:01N 27°56' W 082°26'0 0.0
2017-Dec-02 04:30N 27°56' W 082°26'0 0.0
2017-Dec-02 04:00N 27°56' W 082°26'0 0.0
2017-Dec-02 03:30N 27°56' W 082°26'0 0.0
2017-Dec-02 03:00N 27°56' W 082°26'0 0.0
2017-Dec-02 02:30N 27°56' W 082°26'0 0.0
2017-Dec-02 02:00N 27°56' W 082°26'0 0.0
2017-Dec-02 01:31N 27°56' W 082°26'0 0.0
2017-Dec-02 01:00N 27°56' W 082°26'0 0.0
2017-Dec-02 00:30N 27°56' W 082°26'0 0.0
2017-Dec-02 00:00N 27°56' W 082°26'0 0.0
2017-Dec-01 23:31N 27°56' W 082°26'0 0.0
2017-Dec-01 23:00N 27°56' W 082°26'0 0.0
2017-Dec-01 22:30N 27°56' W 082°26'0 0.0
2017-Dec-01 22:00N 27°56' W 082°26'0 0.0
2017-Dec-01 21:30N 27°56' W 082°26'0 0.0
2017-Dec-01 21:00N 27°56' W 082°26'0 0.0
2017-Dec-01 20:31N 27°56' W 082°26'0 0.0
2017-Dec-01 20:00N 27°56' W 082°26'0 0.0
2017-Dec-01 19:30N 27°56' W 082°26'0 0.0
2017-Dec-01 19:00N 27°56' W 082°26'0 0.0
2017-Dec-01 18:31N 27°56' W 082°26'0 0.0
2017-Dec-01 18:00N 27°56' W 082°26'0 0.0
2017-Dec-01 17:30N 27°56' W 082°26'0 0.0
2017-Dec-01 17:00N 27°56' W 082°26'0 0.0
2017-Dec-01 16:30N 27°56' W 082°26'0 0.0
2017-Dec-01 16:00N 27°56' W 082°26'0 0.0
2017-Dec-01 15:30N 27°56' W 082°26'0 0.0
2017-Dec-01 15:00N 27°56' W 082°26'1 2.3
2017-Dec-01 14:31N 27°55' W 082°26'1 1.7
2017-Dec-01 14:00N 27°55' W 082°27'0 0.8
2017-Dec-01 13:30N 27°55' W 082°27'2 3.6
2017-Dec-01 13:01N 27°53' W 082°26'2 4.1
2017-Dec-01 12:30N 27°51' W 082°27'3 5.5
2017-Dec-01 11:59N 27°51' W 082°24'1 2.5
2017-Dec-01 11:30N 27°51' W 082°25'2 3.6
2017-Dec-01 11:01N 27°50' W 082°27'4 7.8
2017-Dec-01 10:30N 27°54' W 082°26'1 1.2
2017-Dec-01 10:00N 27°55' W 082°26'0 0.0
2017-Dec-01 09:31N 27°55' W 082°26'0 0.0
2017-Dec-01 09:01N 27°55' W 082°26'0 0.0
2017-Dec-01 08:31N 27°55' W 082°26'0 0.0
2017-Dec-01 08:00N 27°55' W 082°26'0 0.0
2017-Dec-01 07:31N 27°55' W 082°26'0 0.0
2017-Dec-01 07:00N 27°55' W 082°26'0 0.0
2017-Dec-01 06:30N 27°55' W 082°26'0 0.0
2017-Dec-01 06:00N 27°55' W 082°26'0 0.0
2017-Dec-01 05:30N 27°55' W 082°26'0 0.0
2017-Dec-01 05:00N 27°55' W 082°26'0 0.0
2017-Dec-01 04:30N 27°55' W 082°26'1 1.3
2017-Dec-01 04:01N 27°54' W 082°25'0 0.9
2017-Dec-01 03:31N 27°54' W 082°26'0 0.7
2017-Dec-01 03:00N 27°54' W 082°26'2 3.8
2017-Dec-01 02:30N 27°56' W 082°26'0 0.0
2017-Dec-01 02:00N 27°56' W 082°26'0 0.0
2017-Dec-01 01:30N 27°56' W 082°26'0 0.0
2017-Dec-01 01:00N 27°56' W 082°26'0 0.0
2017-Dec-01 00:31N 27°56' W 082°26'0 0.0
2017-Dec-01 00:00N 27°56' W 082°26'0 0.0
2017-Nov-30 23:30N 27°56' W 082°26'0 0.0
2017-Nov-30 23:00N 27°56' W 082°26'0 0.0
2017-Nov-30 22:31N 27°56' W 082°26'0 0.0
2017-Nov-30 22:01N 27°56' W 082°26'0 0.0
2017-Nov-30 21:30N 27°56' W 082°26'0 0.0
2017-Nov-30 21:00N 27°56' W 082°26'0 0.0
2017-Nov-30 20:31N 27°56' W 082°26'0 0.0
2017-Nov-30 20:00N 27°56' W 082°26'0 0.0
2017-Nov-30 19:31N 27°56' W 082°26'0 0.0
2017-Nov-30 19:01N 27°56' W 082°26'0 0.0
2017-Nov-30 18:31N 27°56' W 082°26'0 0.0
2017-Nov-30 18:00N 27°56' W 082°26'0 0.0
2017-Nov-30 17:31N 27°56' W 082°26'0 0.0
2017-Nov-30 17:00N 27°56' W 082°26'0 0.0
2017-Nov-30 16:31N 27°56' W 082°26'0 0.0
2017-Nov-30 16:00N 27°56' W 082°26'0 0.0
2017-Nov-30 15:30N 27°56' W 082°26'0 0.0
2017-Nov-30 15:00N 27°56' W 082°26'0 0.0
2017-Nov-30 14:31N 27°56' W 082°26'0 0.0
2017-Nov-30 14:00N 27°56' W 082°26'0 0.0
2017-Nov-30 13:30N 27°56' W 082°26'0 0.0
2017-Nov-30 13:00N 27°56' W 082°26'0 0.0
2017-Nov-30 12:30N 27°56' W 082°26'0 0.0
2017-Nov-30 12:00N 27°56' W 082°26'0 0.0
2017-Nov-30 11:30N 27°56' W 082°26'0 0.0
2017-Nov-30 11:00N 27°56' W 082°26'0 0.0
2017-Nov-30 10:30N 27°56' W 082°26'0 0.0
2017-Nov-30 10:00N 27°56' W 082°26'0 0.0
2017-Nov-30 09:31N 27°56' W 082°26'0 0.0
2017-Nov-30 09:00N 27°56' W 082°26'0 0.0
2017-Nov-30 08:30N 27°56' W 082°26'0 0.0
2017-Nov-30 08:00N 27°56' W 082°26'0 0.0
2017-Nov-30 07:30N 27°56' W 082°26'0 0.0
2017-Nov-30 07:00N 27°56' W 082°26'0 0.0
2017-Nov-30 06:30N 27°56' W 082°26'0 0.0
2017-Nov-30 06:00N 27°56' W 082°26'0 0.0
2017-Nov-30 05:30N 27°56' W 082°26'0 0.0
2017-Nov-30 05:00N 27°56' W 082°26'0 0.0
2017-Nov-30 04:31N 27°56' W 082°26'0 0.0
2017-Nov-30 04:00N 27°56' W 082°26'0 0.0
2017-Nov-30 03:30N 27°56' W 082°26'0 0.0
2017-Nov-30 03:00N 27°56' W 082°26'0 0.0
2017-Nov-30 02:31N 27°56' W 082°26'0 0.0
2017-Nov-30 02:00N 27°56' W 082°26'0 0.0
2017-Nov-30 01:31N 27°56' W 082°26'0 0.0
2017-Nov-30 01:00N 27°56' W 082°26'0 0.0
2017-Nov-30 00:30N 27°56' W 082°26'0 0.0
2017-Nov-30 00:01N 27°56' W 082°26'0 0.0
2017-Nov-29 23:30N 27°56' W 082°26'0 0.0
2017-Nov-29 23:00N 27°56' W 082°26'0 0.0
2017-Nov-29 22:30N 27°56' W 082°26'0 0.0
2017-Nov-29 22:01N 27°56' W 082°26'0 0.0
2017-Nov-29 21:31N 27°56' W 082°26'0 0.0
2017-Nov-29 21:00N 27°56' W 082°26'0 0.0
2017-Nov-29 20:30N 27°56' W 082°26'0 0.0
2017-Nov-29 20:00N 27°56' W 082°26'0 0.0
2017-Nov-29 19:30N 27°56' W 082°26'0 0.0
2017-Nov-29 19:00N 27°56' W 082°26'0 0.0
2017-Nov-29 18:30N 27°56' W 082°26'0 0.0
2017-Nov-29 18:01N 27°56' W 082°26'0 0.0
2017-Nov-29 17:31N 27°56' W 082°26'0 0.0
2017-Nov-29 17:00N 27°56' W 082°26'0 0.0
2017-Nov-29 16:30N 27°56' W 082°26'0 0.0
2017-Nov-29 16:01N 27°56' W 082°26'0 0.0
2017-Nov-29 15:30N 27°56' W 082°26'3 5.7
2017-Nov-29 15:01N 27°53' W 082°26'5 9.3
2017-Nov-29 14:30N 27°49' W 082°26'1 1.7
2017-Nov-29 13:42N 27°48' W 082°24'0 0.4
2017-Nov-29 13:28N 27°48' W 082°25'0 0.0
2017-Nov-29 12:52N 27°48' W 082°25'0 0.0
2017-Nov-29 12:18N 27°48' W 082°25'0 0.0
2017-Nov-29 11:19N 27°48' W 082°25'0 0.0
2017-Nov-29 10:54N 27°48' W 082°25'0 0.0
2017-Nov-29 10:29N 27°48' W 082°25'0 0.0
2017-Nov-29 09:59N 27°48' W 082°25'0 0.2
2017-Nov-29 09:28N 27°48' W 082°25'0 0.2
2017-Nov-29 09:00N 27°48' W 082°24'0 0.0
2017-Nov-29 00:00N 27°48' W 082°24'0 0.3
2017-Nov-28 23:30N 27°48' W 082°25'0 0.4
2017-Nov-28 23:00N 27°48' W 082°25'5 9.2
2017-Nov-28 22:31N 27°53' W 082°26'3 6.2
2017-Nov-28 22:00N 27°56' W 082°26'0 0.0
2017-Nov-28 21:31N 27°56' W 082°26'1 2.4
2017-Nov-28 21:00N 27°55' W 082°26'2 4.0
2017-Nov-28 20:30N 27°53' W 082°26'3 5.7
2017-Nov-28 20:00N 27°56' W 082°26'1 1.1
2017-Nov-28 19:30N 27°56' W 082°26'0 0.0
2017-Nov-28 19:01N 27°56' W 082°26'0 0.0
2017-Nov-28 18:30N 27°56' W 082°26'1 1.8
2017-Nov-28 18:00N 27°55' W 082°26'5 9.2
2017-Nov-28 17:31N 27°51' W 082°27'4 8.6
2017-Nov-28 17:01N 27°48' W 082°30'4 8.0
2017-Nov-28 16:30N 27°48' W 082°34'3 6.5
2017-Nov-28 16:00N 27°52' W 082°33'0 0.3
2017-Nov-28 15:00N 27°52' W 082°33'2 3.5
2017-Nov-28 14:30N 27°50' W 082°34'  
Track history (hours):
 
Tides and Currents Weather Stations Pressure Air Temp Water Temp Dewpoint Dewpoint Depression Visibility Wind Speed Wind Dir Waves Ship Positions

Independent

Last reported at 2017-Dec-08 14:16 UTC. Time now 2017-Dec-13 22:44 UTC.
Position N 27°42' W 082°33'.

Length 28 m; draft 5 m.

Type: Tug. MMSI: 367777460.

Date/timePositionNaut miles runAvg speedWind from/ knotsBaromVisibWave heightAir tempDewpointWater temp
2017-Dec-08 14:16N 27°42' W 082°33'414.2
2017-Dec-08 14:01N 27°45' W 082°32'611.7
2017-Dec-08 13:30N 27°49' W 082°26'2 3.3
2017-Dec-08 13:01N 27°48' W 082°25'0 0.4
2017-Dec-08 12:30N 27°48' W 082°25'2 4.0
2017-Dec-08 12:00N 27°49' W 082°27'2 3.2
2017-Dec-08 11:30N 27°48' W 082°29'5 9.8
2017-Dec-08 11:00N 27°53' W 082°26'3 6.9
2017-Dec-08 10:30N 27°56' W 082°26'0 0.0
2017-Dec-08 10:01N 27°56' W 082°26'0 0.0
2017-Dec-08 09:31N 27°56' W 082°26'0 0.0
2017-Dec-08 09:01N 27°56' W 082°26'0 0.0
2017-Dec-08 08:30N 27°56' W 082°26'0 0.0
2017-Dec-08 08:00N 27°56' W 082°26'0 0.0
2017-Dec-08 07:31N 27°56' W 082°26'2 4.2
2017-Dec-08 07:01N 27°54' W 082°25'0 0.0
2017-Dec-08 06:30N 27°54' W 082°25'0 0.3
2017-Dec-08 06:01N 27°54' W 082°25'1 2.9
2017-Dec-08 05:30N 27°53' W 082°26'611.1
2017-Dec-08 05:00N 27°48' W 082°28'510.4
2017-Dec-08 04:30N 27°44' W 082°32'4 1.5
2017-Dec-08 02:04N 27°41' W 082°34'112.2
2017-Dec-08 01:58N 27°42' W 082°33'612.0
2017-Dec-08 01:30N 27°47' W 082°31'510.9
2017-Dec-08 01:01N 27°51' W 082°27'5 9.0
2017-Dec-08 00:30N 27°55' W 082°26'0 0.0
2017-Dec-08 00:00N 27°55' W 082°26'1 2.9
2017-Dec-07 23:30N 27°54' W 082°26'5 9.9
2017-Dec-07 23:01N 27°49' W 082°27'2 4.4
2017-Dec-07 22:30N 27°48' W 082°24'1 1.9
2017-Dec-07 22:00N 27°49' W 082°26'611.3
2017-Dec-07 21:30N 27°46' W 082°31'6 1.2
2017-Dec-07 16:51N 27°41' W 082°34'412.3
2017-Dec-07 16:31N 27°45' W 082°32'510.9
2017-Dec-07 16:01N 27°48' W 082°27'3 5.2
2017-Dec-07 15:30N 27°48' W 082°25'0 0.0
2017-Dec-07 14:58N 27°48' W 082°24'0 0.0
2017-Dec-07 13:49N 27°48' W 082°24'0 0.0
2017-Dec-07 13:03N 27°48' W 082°24'0 0.0
2017-Dec-07 12:50N 27°48' W 082°24'0 0.0
2017-Dec-07 12:28N 27°48' W 082°24'0 0.0
2017-Dec-07 11:58N 27°48' W 082°24'0 0.0
2017-Dec-07 07:29N 27°48' W 082°24'0 0.5
2017-Dec-07 07:00N 27°48' W 082°25'2 5.0
2017-Dec-07 06:31N 27°48' W 082°28'2 4.4
2017-Dec-07 06:00N 27°48' W 082°30'4 7.5
2017-Dec-07 05:30N 27°44' W 082°32'7 1.5
2017-Dec-07 01:06N 27°38' W 082°34'0 2.4
2017-Dec-07 01:00N 27°38' W 082°34'  
2017-Dec-04 10:30N 27°56' W 082°26'0 0.0
2017-Dec-04 10:00N 27°56' W 082°26'0 0.0
2017-Dec-04 09:30N 27°56' W 082°26'0 0.0
2017-Dec-04 09:01N 27°56' W 082°26'0 0.0
2017-Dec-04 08:30N 27°56' W 082°26'0 0.0
2017-Dec-04 08:00N 27°56' W 082°26'0 0.0
2017-Dec-04 07:30N 27°56' W 082°26'0 0.0
2017-Dec-04 07:00N 27°56' W 082°26'0 0.0
2017-Dec-04 06:31N 27°56' W 082°26'0 0.0
2017-Dec-04 06:00N 27°56' W 082°26'0 0.0
2017-Dec-04 05:30N 27°56' W 082°26'0 0.0
2017-Dec-04 05:00N 27°56' W 082°26'0 0.0
2017-Dec-04 04:30N 27°56' W 082°26'0 0.0
2017-Dec-04 04:01N 27°56' W 082°26'0 0.0
2017-Dec-04 03:30N 27°56' W 082°26'0 0.0
2017-Dec-04 03:00N 27°56' W 082°26'0 0.0
2017-Dec-04 02:31N 27°56' W 082°26'0 0.0
2017-Dec-04 02:00N 27°56' W 082°26'0 0.0
2017-Dec-04 01:30N 27°56' W 082°26'0 0.0
2017-Dec-04 01:00N 27°56' W 082°26'0 0.0
2017-Dec-04 00:30N 27°56' W 082°26'0 0.2
2017-Dec-04 00:00N 27°56' W 082°26'1 2.0
2017-Dec-03 23:30N 27°55' W 082°27'0 0.3
2017-Dec-03 23:00N 27°55' W 082°27'0 0.6
2017-Dec-03 22:31N 27°55' W 082°27'1 2.8
2017-Dec-03 22:00N 27°56' W 082°26'0 0.0
2017-Dec-03 21:30N 27°56' W 082°26'0 0.0
2017-Dec-03 21:01N 27°56' W 082°26'0 0.0
2017-Dec-03 20:30N 27°56' W 082°26'0 0.0
2017-Dec-03 20:00N 27°56' W 082°26'0 0.0
2017-Dec-03 19:30N 27°56' W 082°26'0 0.0
2017-Dec-03 19:00N 27°56' W 082°26'1 2.4
2017-Dec-03 18:31N 27°55' W 082°25'0 0.1
2017-Dec-03 18:01N 27°55' W 082°25'0 0.0
2017-Dec-03 17:30N 27°55' W 082°25'1 2.4
2017-Dec-03 17:00N 27°56' W 082°26'0 0.0
2017-Dec-03 16:30N 27°56' W 082°26'0 0.0
2017-Dec-03 16:00N 27°56' W 082°26'0 0.0
2017-Dec-03 15:30N 27°56' W 082°26'0 0.0
2017-Dec-03 15:00N 27°56' W 082°26'0 0.0
2017-Dec-03 14:30N 27°56' W 082°26'0 0.0
2017-Dec-03 14:00N 27°56' W 082°26'0 0.0
2017-Dec-03 13:30N 27°56' W 082°26'0 0.0
2017-Dec-03 13:00N 27°56' W 082°26'0 0.0
2017-Dec-03 12:30N 27°56' W 082°26'0 0.0
2017-Dec-03 12:00N 27°56' W 082°26'0 0.0
2017-Dec-03 11:30N 27°56' W 082°26'0 0.0
2017-Dec-03 11:00N 27°56' W 082°26'0 0.0
2017-Dec-03 10:31N 27°56' W 082°26'0 0.0
2017-Dec-03 10:00N 27°56' W 082°26'0 0.0
2017-Dec-03 09:31N 27°56' W 082°26'0 0.0
2017-Dec-03 09:00N 27°56' W 082°26'2 3.7
2017-Dec-03 08:31N 27°54' W 082°26'1 2.1
2017-Dec-03 08:01N 27°55' W 082°27'0 0.9
2017-Dec-03 07:30N 27°55' W 082°27'2 3.9
2017-Dec-03 07:00N 27°53' W 082°26'2 3.8
2017-Dec-03 06:31N 27°55' W 082°26'1 3.0
2017-Dec-03 06:00N 27°56' W 082°26'0 0.0
2017-Dec-03 05:30N 27°56' W 082°26'0 0.0
2017-Dec-03 05:00N 27°56' W 082°26'0 0.0
2017-Dec-03 04:30N 27°56' W 082°26'0 0.0
2017-Dec-03 04:00N 27°56' W 082°26'0 0.0
2017-Dec-03 03:31N 27°56' W 082°26'0 0.0
2017-Dec-03 03:00N 27°56' W 082°26'0 0.0
2017-Dec-03 02:30N 27°56' W 082°26'0 0.0
2017-Dec-03 02:01N 27°56' W 082°26'0 0.0
2017-Dec-03 01:30N 27°56' W 082°26'0 0.0
2017-Dec-03 01:00N 27°56' W 082°26'0 0.0
2017-Dec-03 00:31N 27°56' W 082°26'0 0.0
2017-Dec-03 00:01N 27°56' W 082°26'0 0.0
2017-Dec-02 23:31N 27°56' W 082°26'0 0.0
2017-Dec-02 23:00N 27°56' W 082°26'0 0.0
2017-Dec-02 22:31N 27°56' W 082°26'0 0.0
2017-Dec-02 22:01N 27°56' W 082°26'0 0.0
2017-Dec-02 21:30N 27°56' W 082°26'2 4.9
2017-Dec-02 21:01N 27°54' W 082°26'3 6.7
2017-Dec-02 20:31N 27°51' W 082°24'0 0.0
2017-Dec-02 19:59N 27°51' W 082°24'0 0.7
2017-Dec-02 19:30N 27°51' W 082°24'2 5.0
2017-Dec-02 19:00N 27°51' W 082°27'1 1.6
2017-Dec-02 18:31N 27°50' W 082°27'3 6.8
2017-Dec-02 18:01N 27°53' W 082°26'3 5.6
2017-Dec-02 17:30N 27°56' W 082°26'0 0.0
2017-Dec-02 17:00N 27°56' W 082°26'0 0.0
2017-Dec-02 16:30N 27°56' W 082°26'0 0.0
2017-Dec-02 16:00N 27°56' W 082°26'0 0.0
2017-Dec-02 15:31N 27°56' W 082°26'0 0.0
2017-Dec-02 15:01N 27°56' W 082°26'0 0.0
2017-Dec-02 14:30N 27°56' W 082°26'0 0.0
2017-Dec-02 14:00N 27°56' W 082°26'0 0.0
2017-Dec-02 13:30N 27°56' W 082°26'0 0.0
2017-Dec-02 13:00N 27°56' W 082°26'0 0.0
2017-Dec-02 12:31N 27°56' W 082°26'0 0.0
2017-Dec-02 12:01N 27°56' W 082°26'0 0.0
2017-Dec-02 11:30N 27°56' W 082°26'0 0.0
2017-Dec-02 11:00N 27°56' W 082°26'0 0.0
2017-Dec-02 10:30N 27°56' W 082°26'0 0.0
2017-Dec-02 10:00N 27°56' W 082°26'0 0.0
2017-Dec-02 09:30N 27°56' W 082°26'0 0.0
2017-Dec-02 09:00N 27°56' W 082°26'0 0.0
2017-Dec-02 08:30N 27°56' W 082°26'2 4.0
2017-Dec-02 08:01N 27°54' W 082°25'0 0.5
2017-Dec-02 07:30N 27°54' W 082°25'1 1.1
2017-Dec-02 07:01N 27°54' W 082°26'1 2.1
2017-Dec-02 06:30N 27°55' W 082°27'0 0.3
2017-Dec-02 06:00N 27°55' W 082°27'1 1.8
2017-Dec-02 05:30N 27°56' W 082°26'1 1.1
2017-Dec-02 05:01N 27°56' W 082°26'0 0.0
2017-Dec-02 04:30N 27°56' W 082°26'0 0.0
2017-Dec-02 04:00N 27°56' W 082°26'0 0.0
2017-Dec-02 03:30N 27°56' W 082°26'0 0.0
2017-Dec-02 03:00N 27°56' W 082°26'0 0.0
2017-Dec-02 02:30N 27°56' W 082°26'0 0.0
2017-Dec-02 02:00N 27°56' W 082°26'0 0.0
2017-Dec-02 01:31N 27°56' W 082°26'0 0.0
2017-Dec-02 01:00N 27°56' W 082°26'0 0.0
2017-Dec-02 00:30N 27°56' W 082°26'0 0.0
2017-Dec-02 00:00N 27°56' W 082°26'0 0.0
2017-Dec-01 23:31N 27°56' W 082°26'0 0.0
2017-Dec-01 23:00N 27°56' W 082°26'0 0.0
2017-Dec-01 22:30N 27°56' W 082°26'0 0.0
2017-Dec-01 22:00N 27°56' W 082°26'0 0.0
2017-Dec-01 21:30N 27°56' W 082°26'0 0.0
2017-Dec-01 21:00N 27°56' W 082°26'0 0.0
2017-Dec-01 20:31N 27°56' W 082°26'0 0.0
2017-Dec-01 20:00N 27°56' W 082°26'0 0.0
2017-Dec-01 19:30N 27°56' W 082°26'0 0.0
2017-Dec-01 19:00N 27°56' W 082°26'0 0.0
2017-Dec-01 18:31N 27°56' W 082°26'0 0.0
2017-Dec-01 18:00N 27°56' W 082°26'0 0.0
2017-Dec-01 17:30N 27°56' W 082°26'0 0.0
2017-Dec-01 17:00N 27°56' W 082°26'0 0.0
2017-Dec-01 16:30N 27°56' W 082°26'0 0.0
2017-Dec-01 16:00N 27°56' W 082°26'0 0.0
2017-Dec-01 15:30N 27°56' W 082°26'0 0.0
2017-Dec-01 15:00N 27°56' W 082°26'1 2.3
2017-Dec-01 14:31N 27°55' W 082°26'1 1.7
2017-Dec-01 14:00N 27°55' W 082°27'0 0.8
2017-Dec-01 13:30N 27°55' W 082°27'2 3.6
2017-Dec-01 13:01N 27°53' W 082°26'2 4.1
2017-Dec-01 12:30N 27°51' W 082°27'3 5.5
2017-Dec-01 11:59N 27°51' W 082°24'1 2.5
2017-Dec-01 11:30N 27°51' W 082°25'2 3.6
2017-Dec-01 11:01N 27°50' W 082°27'4 7.8
2017-Dec-01 10:30N 27°54' W 082°26'1 1.2
2017-Dec-01 10:00N 27°55' W 082°26'0 0.0
2017-Dec-01 09:31N 27°55' W 082°26'0 0.0
2017-Dec-01 09:01N 27°55' W 082°26'0 0.0
2017-Dec-01 08:31N 27°55' W 082°26'0 0.0
2017-Dec-01 08:00N 27°55' W 082°26'0 0.0
2017-Dec-01 07:31N 27°55' W 082°26'0 0.0
2017-Dec-01 07:00N 27°55' W 082°26'0 0.0
2017-Dec-01 06:30N 27°55' W 082°26'0 0.0
2017-Dec-01 06:00N 27°55' W 082°26'0 0.0
2017-Dec-01 05:30N 27°55' W 082°26'0 0.0
2017-Dec-01 05:00N 27°55' W 082°26'0 0.0
2017-Dec-01 04:30N 27°55' W 082°26'1 1.3
2017-Dec-01 04:01N 27°54' W 082°25'0 0.9
2017-Dec-01 03:31N 27°54' W 082°26'0 0.7
2017-Dec-01 03:00N 27°54' W 082°26'2 3.8
2017-Dec-01 02:30N 27°56' W 082°26'0 0.0
2017-Dec-01 02:00N 27°56' W 082°26'0 0.0
2017-Dec-01 01:30N 27°56' W 082°26'0 0.0
2017-Dec-01 01:00N 27°56' W 082°26'0 0.0
2017-Dec-01 00:31N 27°56' W 082°26'0 0.0
2017-Dec-01 00:00N 27°56' W 082°26'0 0.0
2017-Nov-30 23:30N 27°56' W 082°26'0 0.0
2017-Nov-30 23:00N 27°56' W 082°26'0 0.0
2017-Nov-30 22:31N 27°56' W 082°26'0 0.0
2017-Nov-30 22:01N 27°56' W 082°26'0 0.0
2017-Nov-30 21:30N 27°56' W 082°26'0 0.0
2017-Nov-30 21:00N 27°56' W 082°26'0 0.0
2017-Nov-30 20:31N 27°56' W 082°26'0 0.0
2017-Nov-30 20:00N 27°56' W 082°26'0 0.0
2017-Nov-30 19:31N 27°56' W 082°26'0 0.0
2017-Nov-30 19:01N 27°56' W 082°26'0 0.0
2017-Nov-30 18:31N 27°56' W 082°26'0 0.0
2017-Nov-30 18:00N 27°56' W 082°26'0 0.0
2017-Nov-30 17:31N 27°56' W 082°26'0 0.0
2017-Nov-30 17:00N 27°56' W 082°26'0 0.0
2017-Nov-30 16:31N 27°56' W 082°26'0 0.0
2017-Nov-30 16:00N 27°56' W 082°26'0 0.0
2017-Nov-30 15:30N 27°56' W 082°26'0 0.0
2017-Nov-30 15:00N 27°56' W 082°26'0 0.0
2017-Nov-30 14:31N 27°56' W 082°26'0 0.0
2017-Nov-30 14:00N 27°56' W 082°26'0 0.0
2017-Nov-30 13:30N 27°56' W 082°26'0 0.0
2017-Nov-30 13:00N 27°56' W 082°26'0 0.0
2017-Nov-30 12:30N 27°56' W 082°26'0 0.0
2017-Nov-30 12:00N 27°56' W 082°26'0 0.0
2017-Nov-30 11:30N 27°56' W 082°26'0 0.0
2017-Nov-30 11:00N 27°56' W 082°26'0 0.0
2017-Nov-30 10:30N 27°56' W 082°26'0 0.0
2017-Nov-30 10:00N 27°56' W 082°26'0 0.0
2017-Nov-30 09:31N 27°56' W 082°26'0 0.0
2017-Nov-30 09:00N 27°56' W 082°26'0 0.0
2017-Nov-30 08:30N 27°56' W 082°26'0 0.0
2017-Nov-30 08:00N 27°56' W 082°26'0 0.0
2017-Nov-30 07:30N 27°56' W 082°26'0 0.0
2017-Nov-30 07:00N 27°56' W 082°26'0 0.0
2017-Nov-30 06:30N 27°56' W 082°26'0 0.0
2017-Nov-30 06:00N 27°56' W 082°26'0 0.0
2017-Nov-30 05:30N 27°56' W 082°26'0 0.0
2017-Nov-30 05:00N 27°56' W 082°26'0 0.0
2017-Nov-30 04:31N 27°56' W 082°26'0 0.0
2017-Nov-30 04:00N 27°56' W 082°26'0 0.0
2017-Nov-30 03:30N 27°56' W 082°26'0 0.0
2017-Nov-30 03:00N 27°56' W 082°26'0 0.0
2017-Nov-30 02:31N 27°56' W 082°26'0 0.0
2017-Nov-30 02:00N 27°56' W 082°26'0 0.0
2017-Nov-30 01:31N 27°56' W 082°26'0 0.0
2017-Nov-30 01:00N 27°56' W 082°26'0 0.0
2017-Nov-30 00:30N 27°56' W 082°26'0 0.0
2017-Nov-30 00:01N 27°56' W 082°26'0 0.0
2017-Nov-29 23:30N 27°56' W 082°26'0 0.0
2017-Nov-29 23:00N 27°56' W 082°26'0 0.0
2017-Nov-29 22:30N 27°56' W 082°26'0 0.0
2017-Nov-29 22:01N 27°56' W 082°26'0 0.0
2017-Nov-29 21:31N 27°56' W 082°26'0 0.0
2017-Nov-29 21:00N 27°56' W 082°26'0 0.0
2017-Nov-29 20:30N 27°56' W 082°26'0 0.0
2017-Nov-29 20:00N 27°56' W 082°26'0 0.0
2017-Nov-29 19:30N 27°56' W 082°26'0 0.0
2017-Nov-29 19:00N 27°56' W 082°26'0 0.0
2017-Nov-29 18:30N 27°56' W 082°26'0 0.0
2017-Nov-29 18:01N 27°56' W 082°26'0 0.0
2017-Nov-29 17:31N 27°56' W 082°26'0 0.0
2017-Nov-29 17:00N 27°56' W 082°26'0 0.0
2017-Nov-29 16:30N 27°56' W 082°26'0 0.0
2017-Nov-29 16:01N 27°56' W 082°26'0 0.0
2017-Nov-29 15:30N 27°56' W 082°26'3 5.7
2017-Nov-29 15:01N 27°53' W 082°26'5 9.3
2017-Nov-29 14:30N 27°49' W 082°26'1 1.7
2017-Nov-29 13:42N 27°48' W 082°24'0 0.4
2017-Nov-29 13:28N 27°48' W 082°25'0 0.0
2017-Nov-29 12:52N 27°48' W 082°25'0 0.0
2017-Nov-29 12:18N 27°48' W 082°25'0 0.0
2017-Nov-29 11:19N 27°48' W 082°25'0 0.0
2017-Nov-29 10:54N 27°48' W 082°25'0 0.0
2017-Nov-29 10:29N 27°48' W 082°25'0 0.0
2017-Nov-29 09:59N 27°48' W 082°25'0 0.2
2017-Nov-29 09:28N 27°48' W 082°25'0 0.2
2017-Nov-29 09:00N 27°48' W 082°24'0 0.0
2017-Nov-29 00:00N 27°48' W 082°24'0 0.3
2017-Nov-28 23:30N 27°48' W 082°25'0 0.4
2017-Nov-28 23:00N 27°48' W 082°25'5 9.2
2017-Nov-28 22:31N 27°53' W 082°26'3 6.2
2017-Nov-28 22:00N 27°56' W 082°26'0 0.0
2017-Nov-28 21:31N 27°56' W 082°26'1 2.4
2017-Nov-28 21:00N 27°55' W 082°26'2 4.0
2017-Nov-28 20:30N 27°53' W 082°26'3 5.7
2017-Nov-28 20:00N 27°56' W 082°26'1 1.1
2017-Nov-28 19:30N 27°56' W 082°26'0 0.0
2017-Nov-28 19:01N 27°56' W 082°26'0 0.0
2017-Nov-28 18:30N 27°56' W 082°26'1 1.8
2017-Nov-28 18:00N 27°55' W 082°26'5 9.2
2017-Nov-28 17:31N 27°51' W 082°27'4 8.6
2017-Nov-28 17:01N 27°48' W 082°30'4 8.0
2017-Nov-28 16:30N 27°48' W 082°34'3 6.5
2017-Nov-28 16:00N 27°52' W 082°33'0 0.3
2017-Nov-28 15:00N 27°52' W 082°33'2 3.5
2017-Nov-28 14:30N 27°50' W 082°34'  

Dump ship's entire track history